Time;durP1;ratioP1;P1;durP2;ratioP2;P2;SDS_P1;SDS_P2;PMS_P1;PMS_P2;Temp;Humidity;BMP_temperature;BMP_pressure;BME280_temperature;BME280_humidity;BME280_pressure;Samples;Min_cycle;Max_cycle;Signal;HPM_P1;HPM_P2
2023/05/24 00:00:46;;;;;;;11.55;9.23;;;19.40;96.70;;;;;;4976908;28;20046;-71
2023/05/24 00:03:17;;;;;;;9.60;8.60;;;19.50;96.70;;;;;;4967802;28;20596;-70
2023/05/24 00:05:46;;;;;;;9.15;8.25;;;19.60;96.70;;;;;;4972807;28;20567;-70
2023/05/24 00:12:58;;;;;;;9.32;8.32;;;19.70;96.70;;;;;;4976413;28;20050;-70
2023/05/24 00:15:28;;;;;;;9.88;8.68;;;19.80;96.70;;;;;;4971841;28;20046;-71
2023/05/24 00:17:56;;;;;;;10.77;8.77;;;19.60;96.70;;;;;;4932971;28;20061;-70
2023/05/24 00:20:24;;;;;;;10.60;8.52;;;19.50;96.70;;;;;;4962582;28;20051;-71
2023/05/24 00:22:53;;;;;;;10.73;8.93;;;19.40;96.70;;;;;;4967889;28;20149;-71
2023/05/24 00:25:21;;;;;;;8.77;7.85;;;19.40;96.70;;;;;;4958314;28;20045;-70
2023/05/24 00:27:49;;;;;;;9.75;8.65;;;19.60;96.70;;;;;;4972156;28;20054;-70
2023/05/24 00:30:18;;;;;;;8.95;8.15;;;19.80;96.70;;;;;;4953138;28;20047;-70
2023/05/24 00:32:49;;;;;;;10.25;8.02;;;19.70;96.70;;;;;;4966819;28;20043;-70
2023/05/24 00:47:31;;;;;;;10.80;8.38;;;19.70;96.70;;;;;;4949223;28;20059;-70
2023/05/24 00:50:01;;;;;;;10.15;8.52;;;19.70;96.70;;;;;;4977376;28;20102;-70
2023/05/24 00:52:30;;;;;;;10.05;8.93;;;19.70;96.70;;;;;;4953990;28;20539;-71
2023/05/24 00:54:58;;;;;;;10.35;8.32;;;19.70;96.70;;;;;;4961182;28;20039;-71
2023/05/24 01:10:29;;;;;;;8.57;7.72;;;19.70;96.70;;;;;;4913052;29;20048;-71
2023/05/24 01:13:03;;;;;;;8.55;7.65;;;19.80;96.70;;;;;;4901022;29;20044;-70
2023/05/24 01:15:40;;;;;;;9.07;7.90;;;19.80;96.70;;;;;;4916522;29;20052;-69
2023/05/24 03:12:01;;;;;;;6.20;5.60;;;18.90;96.70;;;;;;4956293;28;20097;-70
2023/05/24 03:14:33;;;;;;;7.03;5.60;;;18.90;96.70;;;;;;4954960;28;20070;-70
2023/05/24 03:17:01;;;;;;;7.97;5.72;;;18.90;96.70;;;;;;4966959;28;20042;-70
2023/05/24 03:19:30;;;;;;;6.13;5.53;;;18.90;96.70;;;;;;4967018;28;20043;-71
2023/05/24 03:21:58;;;;;;;6.82;5.45;;;18.90;96.70;;;;;;4971999;28;20126;-70
2023/05/24 03:24:27;;;;;;;6.13;5.38;;;18.80;96.70;;;;;;4962207;28;20047;-70
2023/05/24 03:26:55;;;;;;;7.05;6.00;;;18.70;96.70;;;;;;4949160;28;20505;-70
2023/05/24 03:29:25;;;;;;;6.97;5.93;;;18.70;96.70;;;;;;4965791;28;20050;-71
2023/05/24 03:31:54;;;;;;;7.68;6.10;;;18.70;96.70;;;;;;4966615;28;20528;-70
2023/05/24 03:34:23;;;;;;;6.35;5.72;;;18.70;96.70;;;;;;4939484;28;20580;-70
2023/05/24 03:36:53;;;;;;;6.80;6.20;;;18.60;96.70;;;;;;4969481;28;20042;-70
2023/05/24 03:39:22;;;;;;;8.55;5.50;;;18.70;96.70;;;;;;4959860;28;20520;-70
2023/05/24 03:42:08;;;;;;;8.02;6.53;;;18.70;96.70;;;;;;4963646;28;20049;-70
2023/05/24 03:44:40;;;;;;;6.90;6.30;;;18.70;96.70;;;;;;4962947;28;20054;-71
2023/05/24 03:47:09;;;;;;;8.02;7.30;;;18.70;96.70;;;;;;4950929;28;20144;-70
2023/05/24 03:49:37;;;;;;;8.52;6.80;;;18.60;96.70;;;;;;4943006;28;20053;-70
2023/05/24 03:52:05;;;;;;;9.45;6.85;;;18.60;96.70;;;;;;4974592;28;20056;-70
2023/05/24 03:54:34;;;;;;;7.20;6.50;;;18.60;96.70;;;;;;4963640;28;20047;-70
2023/05/24 03:57:02;;;;;;;7.53;6.60;;;18.60;96.70;;;;;;4964113;28;20153;-70
2023/05/24 03:59:31;;;;;;;7.28;6.47;;;18.50;96.70;;;;;;4934480;28;20051;-71
2023/05/24 04:02:01;;;;;;;6.60;5.57;;;18.40;96.70;;;;;;4969846;28;20154;-71
2023/05/24 04:04:29;;;;;;;8.23;5.97;;;18.50;96.70;;;;;;4951650;28;20150;-70
2023/05/24 04:06:58;;;;;;;6.63;5.95;;;18.60;96.70;;;;;;4972723;28;20051;-71
2023/05/24 04:09:27;;;;;;;9.93;6.22;;;18.60;96.70;;;;;;4976976;28;20031;-71
2023/05/24 04:11:55;;;;;;;7.70;6.57;;;18.70;96.70;;;;;;4949025;28;20113;-70
2023/05/24 04:14:24;;;;;;;9.65;6.53;;;18.60;96.70;;;;;;4965937;28;20035;-71
2023/05/24 04:16:53;;;;;;;7.82;6.60;;;18.50;96.70;;;;;;4948857;28;20129;-71
2023/05/24 04:19:23;;;;;;;8.15;6.53;;;18.50;96.70;;;;;;4936593;28;20061;-71
2023/05/24 04:21:52;;;;;;;9.18;6.38;;;18.50;96.70;;;;;;4958863;28;20042;-70
2023/05/24 04:25:10;;;;;;;8.30;6.15;;;18.50;96.70;;;;;;4957385;28;20053;-71
2023/05/24 04:27:39;;;;;;;;;;;18.40;96.70;;;;;;4946960;28;20416;-71
2023/05/24 04:30:09;;;;;;;8.82;5.95;;;18.40;96.70;;;;;;4950486;28;20066;-71
2023/05/24 04:32:39;;;;;;;8.63;5.90;;;18.40;96.70;;;;;;4952307;28;20057;-71
2023/05/24 04:35:09;;;;;;;7.20;5.70;;;18.50;96.70;;;;;;4957946;28;20050;-69
2023/05/24 04:37:39;;;;;;;7.30;6.20;;;18.60;96.70;;;;;;4962174;28;20050;-69
2023/05/24 04:40:09;;;;;;;8.48;5.85;;;18.50;96.70;;;;;;4937808;28;20058;-69
2023/05/24 04:55:12;;;;;;;8.13;7.15;;;18.60;96.70;;;;;;4969124;28;20049;-70
2023/05/24 04:57:41;;;;;;;7.78;6.82;;;18.70;96.70;;;;;;4949584;28;21585;-70
2023/05/24 05:00:10;;;;;;;10.77;6.90;;;18.60;96.70;;;;;;4980516;28;20049;-69
2023/05/24 05:02:42;;;;;;;9.85;6.78;;;18.60;96.70;;;;;;4973911;28;20374;-70
2023/05/24 05:05:11;;;;;;;9.63;7.40;;;18.70;96.70;;;;;;4945436;28;20848;-70
2023/05/24 05:07:39;;;;;;;10.30;7.80;;;18.80;96.70;;;;;;4973462;28;20051;-69
2023/05/24 05:10:08;;;;;;;8.77;7.47;;;18.90;96.70;;;;;;4967904;28;20039;-69
2023/05/24 05:12:37;;;;;;;10.82;8.77;;;18.90;96.70;;;;;;4954133;28;20527;-69
2023/05/24 05:15:07;;;;;;;12.30;7.65;;;18.90;96.70;;;;;;4965106;28;20933;-70
2023/05/24 05:17:35;;;;;;;7.75;6.95;;;19.00;96.70;;;;;;4964860;28;20062;-70
2023/05/24 05:20:04;;;;;;;9.20;7.68;;;19.00;96.70;;;;;;4953956;28;20050;-70
2023/05/24 05:22:33;;;;;;;12.35;9.20;;;18.90;96.70;;;;;;4981650;28;20069;-69
2023/05/24 05:25:01;;;;;;;9.55;8.65;;;18.90;96.70;;;;;;4973815;28;20811;-69
2023/05/24 05:27:29;;;;;;;9.68;8.50;;;18.90;96.70;;;;;;4962679;28;20089;-69
2023/05/24 05:29:59;;;;;;;10.65;9.35;;;18.90;96.70;;;;;;4973251;28;20129;-70
2023/05/24 05:32:27;;;;;;;9.50;8.07;;;19.00;96.70;;;;;;4964932;28;20045;-70
2023/05/24 05:34:55;;;;;;;9.88;7.95;;;19.10;96.70;;;;;;4956292;28;20093;-70
2023/05/24 05:37:23;;;;;;;10.05;8.90;;;19.10;96.70;;;;;;4954907;28;20070;-70
2023/05/24 05:39:51;;;;;;;9.27;8.23;;;19.10;96.70;;;;;;4951351;28;20058;-70
2023/05/24 05:42:19;;;;;;;12.15;7.95;;;19.20;96.70;;;;;;4965188;28;20126;-72
2023/05/24 05:44:47;;;;;;;9.60;7.97;;;19.20;96.70;;;;;;4952864;28;20320;-70
2023/05/24 05:47:17;;;;;;;10.45;8.00;;;19.20;96.70;;;;;;4973469;28;20104;-71
2023/05/24 05:49:45;;;;;;;9.18;8.27;;;19.30;96.70;;;;;;4967219;28;20097;-71
2023/05/24 05:52:13;;;;;;;9.50;7.75;;;19.30;96.70;;;;;;4978713;28;20097;-70
2023/05/24 05:54:41;;;;;;;10.00;8.10;;;19.30;96.70;;;;;;4957775;28;20451;-70
2023/05/24 05:57:10;;;;;;;9.50;7.63;;;19.30;96.70;;;;;;4952080;28;20125;-70
2023/05/24 05:59:38;;;;;;;11.10;7.68;;;19.40;96.70;;;;;;4963404;28;20188;-70
2023/05/24 06:02:06;;;;;;;9.10;7.13;;;19.50;96.70;;;;;;4980335;28;20042;-70
2023/05/24 06:04:35;;;;;;;9.90;8.20;;;19.50;96.70;;;;;;4974401;28;20043;-70
2023/05/24 06:07:04;;;;;;;11.30;7.95;;;19.50;96.70;;;;;;4942831;28;20050;-70
2023/05/24 06:09:32;;;;;;;10.10;7.78;;;19.50;96.70;;;;;;4950762;28;20128;-70
2023/05/24 06:12:00;;;;;;;9.80;7.60;;;19.60;96.70;;;;;;4963946;28;20050;-70
2023/05/24 06:14:28;;;;;;;10.35;8.10;;;19.60;96.70;;;;;;4963499;28;20046;-70
2023/05/24 06:16:56;;;;;;;8.77;7.43;;;19.70;96.70;;;;;;4962394;28;20102;-70
2023/05/24 06:19:26;;;;;;;10.90;7.88;;;19.70;96.70;;;;;;4962448;28;20165;-70
2023/05/24 06:21:56;;;;;;;12.82;7.18;;;19.70;96.70;;;;;;4965050;28;20410;-70
2023/05/24 06:24:24;;;;;;;7.82;7.05;;;19.70;96.70;;;;;;4964089;28;20062;-70
2023/05/24 06:26:53;;;;;;;8.02;6.35;;;19.80;96.70;;;;;;4930403;29;20047;-70
2023/05/24 06:29:21;;;;;;;7.70;6.40;;;19.90;96.70;;;;;;4959348;28;20042;-70
2023/05/24 06:31:49;;;;;;;7.57;6.70;;;19.90;96.70;;;;;;4964699;28;20379;-70
2023/05/24 06:34:20;;;;;;;8.35;7.03;;;20.00;96.70;;;;;;4970073;28;20504;-70
2023/05/24 06:36:49;;;;;;;9.80;6.70;;;20.00;96.70;;;;;;4963637;28;20034;-70
2023/05/24 06:39:20;;;;;;;7.88;6.95;;;20.10;96.70;;;;;;4973588;28;20094;-70
2023/05/24 06:41:50;;;;;;;7.55;6.03;;;20.10;96.70;;;;;;4964039;28;20066;-70
2023/05/24 06:44:30;;;;;;;7.13;6.43;;;20.20;96.70;;;;;;4970262;28;20081;-70
2023/05/24 06:46:58;;;;;;;10.15;6.38;;;20.20;96.70;;;;;;4946784;28;20050;-70
2023/05/24 06:49:27;;;;;;;7.40;6.30;;;20.30;96.70;;;;;;4963816;28;20047;-70
2023/05/24 06:51:55;;;;;;;8.63;7.72;;;20.40;96.70;;;;;;4963698;28;20050;-72
2023/05/24 06:54:24;;;;;;;7.93;6.88;;;20.40;96.70;;;;;;4970525;28;20145;-71
2023/05/24 06:56:52;;;;;;;7.53;6.75;;;20.40;96.70;;;;;;4962476;28;20046;-70
2023/05/24 06:59:21;;;;;;;7.30;6.57;;;20.50;96.70;;;;;;4964959;28;21236;-70
2023/05/24 07:01:52;;;;;;;7.32;6.50;;;20.50;96.70;;;;;;4978917;28;20093;-70
2023/05/24 07:04:20;;;;;;;8.60;6.55;;;20.50;96.70;;;;;;4978339;28;20051;-70
2023/05/24 07:06:49;;;;;;;7.43;6.20;;;20.60;96.70;;;;;;4969381;28;20046;-70
2023/05/24 07:09:17;;;;;;;9.05;6.68;;;20.60;96.70;;;;;;4947664;28;20160;-69
2023/05/24 07:11:47;;;;;;;8.15;6.32;;;20.60;96.70;;;;;;4879617;29;1382956;-70
2023/05/24 07:14:15;;;;;;;10.65;6.50;;;20.70;96.70;;;;;;4944383;28;20053;-70
2023/05/24 07:16:43;;;;;;;7.88;7.13;;;20.70;96.70;;;;;;4943564;29;20097;-70
2023/05/24 07:19:12;;;;;;;8.65;7.25;;;20.80;96.70;;;;;;4933665;29;20052;-70
2023/05/24 07:21:40;;;;;;;11.73;8.18;;;20.90;96.70;;;;;;4938424;29;20035;-70
2023/05/24 07:24:08;;;;;;;11.80;8.15;;;20.90;96.70;;;;;;4958225;28;20071;-70
2023/05/24 07:26:36;;;;;;;10.63;7.82;;;20.90;96.70;;;;;;4935925;29;20062;-70
2023/05/24 07:29:06;;;;;;;9.23;8.18;;;20.90;96.70;;;;;;4944082;28;20055;-71
2023/05/24 07:31:34;;;;;;;9.57;8.15;;;20.90;96.70;;;;;;4935007;29;20382;-70
2023/05/24 07:34:02;;;;;;;10.75;8.07;;;21.00;96.70;;;;;;4937256;29;20140;-70
2023/05/24 07:36:32;;;;;;;8.07;7.28;;;21.00;96.70;;;;;;4935184;29;20051;-70
2023/05/24 07:39:04;;;;;;;8.30;7.50;;;21.10;96.70;;;;;;4929246;29;20324;-71
2023/05/24 07:41:33;;;;;;;8.20;7.20;;;21.20;96.70;;;;;;4940343;29;20047;-70
2023/05/24 07:44:01;;;;;;;8.55;7.05;;;21.20;96.70;;;;;;4938581;29;20401;-71
2023/05/24 07:46:31;;;;;;;8.10;7.30;;;21.20;96.70;;;;;;4942984;28;20054;-70
2023/05/24 07:48:59;;;;;;;7.95;7.18;;;21.30;96.70;;;;;;4943181;29;20054;-70
2023/05/24 07:51:27;;;;;;;8.77;6.88;;;21.40;96.70;;;;;;4938671;29;20051;-70
2023/05/24 07:53:56;;;;;;;8.63;7.20;;;21.50;96.70;;;;;;4946128;29;20508;-71
2023/05/24 07:56:24;;;;;;;9.07;6.90;;;21.50;96.70;;;;;;4943236;28;20047;-70
2023/05/24 07:58:55;;;;;;;8.30;7.47;;;21.60;96.70;;;;;;4940090;29;20109;-71
2023/05/24 08:01:24;;;;;;;10.18;7.38;;;21.70;96.70;;;;;;4945813;29;20051;-71
2023/05/24 08:03:53;;;;;;;7.90;7.20;;;21.60;96.70;;;;;;4945576;29;20046;-71
2023/05/24 08:06:22;;;;;;;10.75;7.47;;;21.70;96.70;;;;;;4945811;29;20047;-71
2023/05/24 08:08:50;;;;;;;9.77;7.82;;;21.80;96.70;;;;;;4946631;28;20055;-71
2023/05/24 08:11:19;;;;;;;9.32;7.10;;;21.90;96.70;;;;;;4951058;28;20513;-70
2023/05/24 08:13:47;;;;;;;7.97;7.18;;;22.00;96.70;;;;;;4967694;28;20039;-71
2023/05/24 08:16:15;;;;;;;8.90;6.80;;;22.00;96.70;;;;;;4964931;28;20055;-71
2023/05/24 08:18:43;;;;;;;8.63;5.80;;;22.00;96.70;;;;;;4958034;28;21357;-71
2023/05/24 08:21:13;;;;;;;7.35;6.30;;;22.00;96.70;;;;;;4949175;28;20062;-70
2023/05/24 08:23:41;;;;;;;6.75;5.82;;;22.00;96.70;;;;;;4966720;28;20130;-71
2023/05/24 08:26:09;;;;;;;7.30;6.15;;;22.00;96.70;;;;;;4966752;28;20072;-70
2023/05/24 08:28:37;;;;;;;8.55;6.55;;;22.20;96.70;;;;;;4966044;28;20049;-70
2023/05/24 08:31:06;;;;;;;7.50;6.07;;;22.20;96.70;;;;;;4967374;28;20047;-70
2023/05/24 08:33:34;;;;;;;8.35;6.30;;;22.20;96.70;;;;;;4982335;28;20078;-70
2023/05/24 08:36:03;;;;;;;9.82;6.07;;;22.20;96.70;;;;;;4971062;28;20054;-70
2023/05/24 08:38:32;;;;;;;8.48;5.90;;;22.30;96.70;;;;;;4967042;28;20888;-71
2023/05/24 08:41:06;;;;;;;9.50;6.10;;;22.20;96.70;;;;;;4973779;28;20476;-72
2023/05/24 08:43:35;;;;;;;6.65;5.95;;;22.30;96.70;;;;;;4947809;28;20564;-72
2023/05/24 08:46:04;;;;;;;7.35;5.90;;;22.40;96.70;;;;;;4973046;28;20046;-71
2023/05/24 08:48:37;;;;;;;7.15;5.50;;;22.50;96.70;;;;;;4982712;28;20042;-71
2023/05/24 08:51:05;;;;;;;7.95;5.53;;;22.60;96.70;;;;;;4964154;28;20045;-71
2023/05/24 08:53:38;;;;;;;6.63;5.03;;;22.60;96.70;;;;;;4966178;28;20643;-70
2023/05/24 08:56:10;;;;;;;6.35;5.13;;;22.60;96.70;;;;;;4966973;28;20062;-70
2023/05/24 08:58:38;;;;;;;6.57;5.25;;;22.60;96.70;;;;;;4943562;28;20042;-70
2023/05/24 09:01:06;;;;;;;6.57;4.97;;;22.70;96.70;;;;;;4965633;28;20054;-70
2023/05/24 09:03:35;;;;;;;6.13;5.28;;;22.80;96.70;;;;;;4953955;28;20087;-71
2023/05/24 09:06:04;;;;;;;6.38;5.10;;;22.90;96.70;;;;;;4945534;28;20386;-71
2023/05/24 09:08:34;;;;;;;6.18;4.38;;;23.00;96.70;;;;;;4981463;28;20511;-72
2023/05/24 09:11:06;;;;;;;6.65;4.05;;;23.10;96.70;;;;;;4946548;28;20063;-71
2023/05/24 09:13:35;;;;;;;5.88;4.40;;;23.20;96.70;;;;;;4954689;28;20137;-70
2023/05/24 09:16:06;;;;;;;6.22;5.00;;;23.30;96.70;;;;;;4983035;28;20046;-70
2023/05/24 09:18:35;;;;;;;5.85;4.18;;;23.30;96.70;;;;;;4980644;28;20408;-70
2023/05/24 09:21:03;;;;;;;5.53;3.80;;;23.30;96.70;;;;;;4955598;28;20057;-70
2023/05/24 09:23:31;;;;;;;7.90;4.38;;;23.30;96.70;;;;;;4963703;28;20050;-70
2023/05/24 09:26:08;;;;;;;4.80;4.07;;;23.30;96.70;;;;;;4965380;28;20045;-69
2023/05/24 09:28:37;;;;;;;6.38;4.47;;;23.40;96.70;;;;;;4965668;28;20057;-70
2023/05/24 09:31:05;;;;;;;6.30;4.80;;;23.60;96.70;;;;;;4959328;28;20034;-69
2023/05/24 09:33:35;;;;;;;6.50;4.90;;;23.70;96.70;;;;;;4965772;28;20058;-69
2023/05/24 09:36:05;;;;;;;5.43;4.40;;;23.80;96.70;;;;;;4965736;28;20138;-70
2023/05/24 09:38:34;;;;;;;4.50;4.10;;;23.70;96.70;;;;;;4972223;28;20058;-68
2023/05/24 09:41:05;;;;;;;5.15;4.43;;;23.60;96.70;;;;;;4978509;28;20047;-69
2023/05/24 09:43:47;;;;;;;6.80;4.35;;;23.80;96.70;;;;;;4982738;28;20137;-69
2023/05/24 09:46:17;;;;;;;5.72;4.60;;;23.90;96.70;;;;;;4973848;28;20158;-70
2023/05/24 09:48:56;;;;;;;7.35;4.40;;;24.00;96.70;;;;;;4980344;28;20104;-70
2023/05/24 09:51:24;;;;;;;4.68;3.75;;;24.10;96.70;;;;;;4978890;28;20424;-69
2023/05/24 09:53:57;;;;;;;5.65;4.47;;;24.30;96.70;;;;;;4963511;28;20051;-69
2023/05/24 09:56:26;;;;;;;5.53;4.32;;;24.30;96.70;;;;;;4962828;28;20141;-70
2023/05/24 09:58:56;;;;;;;5.30;4.57;;;24.30;96.70;;;;;;4947542;28;20049;-70
2023/05/24 10:01:26;;;;;;;5.05;4.55;;;24.40;96.70;;;;;;4976489;28;20050;-70
2023/05/24 10:03:57;;;;;;;7.25;4.55;;;24.30;96.70;;;;;;4959157;28;20134;-70
2023/05/24 10:06:26;;;;;;;5.55;4.20;;;24.50;96.70;;;;;;4965755;28;20078;-69
2023/05/24 10:08:55;;;;;;;5.68;4.03;;;24.60;96.70;;;;;;4957545;28;20031;-69
2023/05/24 10:11:25;;;;;;;6.20;4.57;;;24.70;96.70;;;;;;4967457;28;20524;-69
2023/05/24 10:13:53;;;;;;;4.82;3.92;;;24.70;96.70;;;;;;4978280;28;20047;-69
2023/05/24 10:16:24;;;;;;;4.80;4.03;;;24.80;96.70;;;;;;4978554;28;20054;-70
2023/05/24 10:18:53;;;;;;;4.88;3.88;;;24.90;96.70;;;;;;4948794;28;20054;-69
2023/05/24 10:21:23;;;;;;;6.18;4.50;;;25.00;96.70;;;;;;4970147;28;20153;-69
2023/05/24 10:23:58;;;;;;;4.60;4.18;;;25.20;96.70;;;;;;4980280;28;21259;-70
2023/05/24 10:26:30;;;;;;;6.00;4.10;;;25.10;96.70;;;;;;4978688;28;20080;-70
2023/05/24 10:29:05;;;;;;;5.82;4.13;;;25.30;96.70;;;;;;4982650;28;20045;-70
2023/05/24 10:31:39;;;;;;;4.82;4.35;;;25.50;96.70;;;;;;4975043;28;20129;-70
2023/05/24 10:34:09;;;;;;;4.63;3.80;;;25.50;96.70;;;;;;4976184;28;20096;-70
2023/05/24 10:36:39;;;;;;;8.63;4.60;;;25.60;96.70;;;;;;4946996;28;20587;-71
2023/05/24 10:39:11;;;;;;;5.05;4.10;;;25.70;96.70;;;;;;4954608;28;20043;-71
2023/05/24 10:41:43;;;;;;;4.63;3.60;;;25.80;96.70;;;;;;4981856;28;20054;-70
2023/05/24 10:44:12;;;;;;;6.25;3.97;;;25.90;96.70;;;;;;4965301;28;20039;-70
2023/05/24 10:47:08;;;;;;;6.18;4.18;;;25.90;96.70;;;;;;4935084;28;20548;-69
2023/05/24 10:49:38;;;;;;;4.85;4.25;;;26.00;96.70;;;;;;4955852;28;20079;-70
2023/05/24 10:52:07;;;;;;;5.28;3.75;;;26.00;96.70;;;;;;4981944;28;20404;-70
2023/05/24 10:54:37;;;;;;;5.88;4.68;;;26.00;96.70;;;;;;4964249;28;20093;-70
2023/05/24 10:57:09;;;;;;;6.38;4.65;;;26.10;96.70;;;;;;4965739;28;20504;-70
2023/05/24 10:59:39;;;;;;;5.20;3.95;;;26.30;96.70;;;;;;4964558;28;20043;-70
2023/05/24 11:02:13;;;;;;;5.53;4.35;;;26.40;96.70;;;;;;4969181;28;20174;-69
2023/05/24 11:04:45;;;;;;;4.82;4.30;;;26.60;96.70;;;;;;4942484;28;20043;-70
2023/05/24 11:07:14;;;;;;;4.90;3.90;;;26.70;96.70;;;;;;4967510;28;20057;-70
2023/05/24 11:09:46;;;;;;;4.82;4.10;;;26.70;96.70;;;;;;4949127;28;20097;-69
2023/05/24 11:12:16;;;;;;;4.40;4.00;;;26.70;96.70;;;;;;4963517;28;20069;-72
2023/05/24 11:14:48;;;;;;;6.55;4.05;;;26.80;96.70;;;;;;4961839;28;20585;-71
2023/05/24 11:17:20;;;;;;;4.95;3.72;;;26.80;96.70;;;;;;4963119;28;20094;-71
2023/05/24 11:19:51;;;;;;;4.53;4.13;;;26.90;96.70;;;;;;4965903;28;20062;-70
2023/05/24 11:22:21;;;;;;;4.07;3.65;;;26.80;96.70;;;;;;4947282;28;20074;-72
2023/05/24 11:24:51;;;;;;;6.05;3.40;;;26.70;96.70;;;;;;4965486;28;20125;-70
2023/05/24 11:27:20;;;;;;;3.90;3.20;;;26.50;96.70;;;;;;4963735;28;20130;-71
2023/05/24 11:29:48;;;;;;;3.88;3.17;;;26.50;96.70;;;;;;4973369;28;20034;-71
2023/05/24 11:32:19;;;;;;;4.40;3.30;;;26.60;96.70;;;;;;4954632;28;20770;-70
2023/05/24 11:34:50;;;;;;;4.45;3.03;;;26.70;96.70;;;;;;4967465;28;20093;-71
2023/05/24 11:37:23;;;;;;;4.18;2.92;;;26.70;96.70;;;;;;4941756;28;20413;-70
2023/05/24 11:40:12;;;;;;;4.25;2.97;;;26.70;96.70;;;;;;4976270;28;20070;-70
2023/05/24 11:42:43;;;;;;;4.78;3.00;;;26.70;96.70;;;;;;4979508;28;20073;-70
2023/05/24 11:45:12;;;;;;;3.28;2.95;;;26.80;96.70;;;;;;4956143;28;20085;-70
2023/05/24 11:47:42;;;;;;;3.50;2.80;;;27.00;96.70;;;;;;4962688;28;20039;-70
2023/05/24 11:50:15;;;;;;;6.60;3.00;;;27.10;96.70;;;;;;4969610;28;20077;-70
2023/05/24 11:52:43;;;;;;;4.38;2.88;;;27.10;96.70;;;;;;4969096;28;20073;-71
2023/05/24 11:55:15;;;;;;;4.85;2.97;;;27.20;96.70;;;;;;4948316;28;20062;-72
2023/05/24 11:57:53;;;;;;;3.80;2.83;;;27.40;96.70;;;;;;4982191;28;20056;-71
2023/05/24 12:00:26;;;;;;;4.50;3.20;;;27.50;96.70;;;;;;4963596;28;20047;-71
2023/05/24 12:03:01;;;;;;;3.22;2.92;;;27.80;96.70;;;;;;4948095;28;20421;-71
2023/05/24 12:05:30;;;;;;;5.22;3.35;;;27.80;96.70;;;;;;4955473;28;20046;-70
2023/05/24 12:08:04;;;;;;;6.28;3.92;;;28.10;96.70;;;;;;4964839;28;20034;-70
2023/05/24 12:10:33;;;;;;;5.88;4.25;;;28.10;96.70;;;;;;4973954;28;20129;-70
2023/05/24 12:13:03;;;;;;;7.20;4.30;;;28.40;96.70;;;;;;4974074;28;20055;-70
2023/05/24 12:15:31;;;;;;;5.80;4.55;;;28.10;96.70;;;;;;4957922;28;20508;-70
2023/05/24 12:18:01;;;;;;;4.93;3.90;;;27.90;96.70;;;;;;4948931;28;20742;-70
2023/05/24 12:20:29;;;;;;;7.07;3.75;;;27.80;96.70;;;;;;4947280;28;20036;-70
2023/05/24 12:23:00;;;;;;;6.38;4.07;;;27.90;96.70;;;;;;4944306;28;20122;-70
2023/05/24 12:25:29;;;;;;;6.60;4.47;;;28.00;96.70;;;;;;4954136;28;20070;-70
2023/05/24 12:27:58;;;;;;;7.00;4.28;;;28.10;96.70;;;;;;4951914;28;20043;-71
2023/05/24 12:30:27;;;;;;;5.63;4.68;;;28.10;96.70;;;;;;4966701;28;20069;-71
2023/05/24 12:32:56;;;;;;;4.72;3.80;;;28.20;96.70;;;;;;4945839;28;20036;-70
2023/05/24 12:35:26;;;;;;;5.80;3.83;;;28.00;96.70;;;;;;4955916;28;20862;-70
2023/05/24 12:37:59;;;;;;;5.22;3.55;;;27.80;96.70;;;;;;4951168;28;20054;-71
2023/05/24 12:40:32;;;;;;;7.22;3.75;;;27.70;96.70;;;;;;4958176;28;20074;-70
2023/05/24 12:43:01;;;;;;;4.82;3.53;;;27.90;96.70;;;;;;4945681;28;20055;-70
2023/05/24 12:45:30;;;;;;;6.32;3.78;;;28.00;96.70;;;;;;4947233;28;20736;-70
2023/05/24 12:48:01;;;;;;;4.65;3.80;;;28.00;96.70;;;;;;4961916;28;20042;-70
2023/05/24 12:50:33;;;;;;;5.20;3.55;;;27.80;96.70;;;;;;4955920;28;20058;-70
2023/05/24 12:53:02;;;;;;;5.70;3.42;;;27.90;96.70;;;;;;4952299;28;20051;-70
2023/05/24 12:55:31;;;;;;;8.07;3.60;;;28.00;96.70;;;;;;4959674;28;20515;-70
2023/05/24 12:58:02;;;;;;;5.30;3.72;;;28.00;96.70;;;;;;5139289;23;21327;-70
2023/05/24 13:00:32;;;;;;;8.02;3.47;;;28.10;96.70;;;;;;4977765;28;20042;-70
2023/05/24 13:03:01;;;;;;;6.35;3.70;;;28.00;96.70;;;;;;4964987;28;20529;-69
2023/05/24 13:05:32;;;;;;;7.22;3.70;;;27.70;96.70;;;;;;4983160;28;20528;-70
2023/05/24 13:08:00;;;;;;;6.65;3.63;;;27.80;96.70;;;;;;4958664;28;20047;-70
2023/05/24 13:10:29;;;;;;;6.78;3.60;;;28.00;96.70;;;;;;4984507;28;20070;-70
2023/05/24 13:12:58;;;;;;;7.43;3.75;;;28.20;96.70;;;;;;4958243;28;20133;-70
2023/05/24 13:15:29;;;;;;;5.70;3.38;;;28.30;96.70;;;;;;4985438;28;20070;-70
2023/05/24 13:17:57;;;;;;;4.53;3.47;;;28.30;96.70;;;;;;4951509;28;20134;-70
2023/05/24 13:20:26;;;;;;;4.18;3.67;;;28.10;96.70;;;;;;4983891;28;20042;-70
2023/05/24 13:22:55;;;;;;;8.38;3.83;;;28.00;96.70;;;;;;4967420;28;20054;-70
2023/05/24 13:25:25;;;;;;;4.15;3.20;;;28.10;96.70;;;;;;4967344;28;20443;-70
2023/05/24 13:27:53;;;;;;;9.98;3.50;;;28.20;96.70;;;;;;4984641;28;20237;-71
2023/05/24 13:30:26;;;;;;;7.82;3.65;;;28.10;96.70;;;;;;4953457;28;20069;-70
2023/05/24 13:32:55;;;;;;;4.15;3.20;;;27.90;96.70;;;;;;4966266;28;20109;-70
2023/05/24 13:35:24;;;;;;;9.18;3.40;;;28.10;96.70;;;;;;4984580;28;20129;-70
2023/05/24 13:37:54;;;;;;;7.43;3.30;;;28.30;96.70;;;;;;4984360;28;20734;-70
2023/05/24 13:40:24;;;;;;;5.32;3.42;;;28.40;96.70;;;;;;4958294;28;20668;-70
2023/05/24 13:42:57;;;;;;;3.85;2.72;;;28.70;96.70;;;;;;4965509;28;20709;-70
2023/05/24 13:45:26;;;;;;;7.68;3.33;;;28.70;96.70;;;;;;4982987;28;20566;-70
2023/05/24 13:48:02;;;;;;;5.80;3.03;;;28.90;96.70;;;;;;4966453;28;20054;-70
2023/05/24 13:50:30;;;;;;;;;;;29.10;96.70;;;;;;4965790;28;20074;-70
2023/05/24 13:53:02;;;;;;;7.07;3.20;;;28.90;96.70;;;;;;4965056;28;19969;-70
2023/05/24 13:55:34;;;;;;;6.78;2.80;;;29.00;96.70;;;;;;4983703;28;20076;-71
2023/05/24 13:58:03;;;;;;;6.07;3.40;;;28.40;96.70;;;;;;4957523;28;20046;-70
2023/05/24 14:00:34;;;;;;;6.50;3.25;;;27.70;96.70;;;;;;4983944;28;20134;-70
2023/05/24 14:03:04;;;;;;;8.40;3.08;;;27.40;96.70;;;;;;4978696;28;20057;-70
2023/05/24 14:05:34;;;;;;;6.90;3.35;;;27.30;96.70;;;;;;4983535;28;20101;-70
2023/05/24 14:08:05;;;;;;;8.77;3.97;;;27.50;96.70;;;;;;4982992;28;20050;-71
2023/05/24 14:10:36;;;;;;;5.70;3.40;;;27.90;96.70;;;;;;4975600;28;20042;-70
2023/05/24 14:13:05;;;;;;;5.63;3.10;;;27.40;96.70;;;;;;4966306;28;20077;-70
2023/05/24 14:15:36;;;;;;;7.95;3.60;;;27.00;96.70;;;;;;4983985;28;20054;-71
2023/05/24 14:18:06;;;;;;;6.80;2.92;;;26.90;96.70;;;;;;4957874;28;20420;-70
2023/05/24 14:20:36;;;;;;;7.32;3.00;;;26.40;96.70;;;;;;4982654;28;20069;-70
2023/05/24 14:23:06;;;;;;;8.63;3.33;;;26.30;96.70;;;;;;4966229;28;20676;-70
2023/05/24 14:25:36;;;;;;;5.88;3.55;;;26.10;96.70;;;;;;4982668;28;20088;-70
2023/05/24 14:28:07;;;;;;;13.73;3.47;;;26.10;96.70;;;;;;4983506;28;20046;-70
2023/05/24 14:30:36;;;;;;;8.57;3.60;;;26.00;96.70;;;;;;4983303;28;20050;-70
2023/05/24 14:33:06;;;;;;;13.82;3.20;;;25.90;96.70;;;;;;4965646;28;20046;-70
2023/05/24 14:35:38;;;;;;;8.75;3.25;;;25.90;96.70;;;;;;4966126;28;20050;-70
2023/05/24 14:38:09;;;;;;;5.60;3.20;;;25.70;96.70;;;;;;4983166;28;20042;-70
2023/05/24 14:40:39;;;;;;;6.43;3.35;;;25.70;96.70;;;;;;4950885;28;20081;-70
2023/05/24 14:43:09;;;;;;;6.60;2.88;;;25.60;96.70;;;;;;4963810;28;20496;-70
2023/05/24 14:45:39;;;;;;;8.40;3.20;;;25.60;96.70;;;;;;4958322;28;20047;-71
2023/05/24 14:48:10;;;;;;;5.80;2.78;;;25.50;96.70;;;;;;4950623;28;20050;-70
2023/05/24 14:50:40;;;;;;;7.97;3.45;;;25.40;96.70;;;;;;4983161;28;20130;-70
2023/05/24 14:53:10;;;;;;;6.07;3.28;;;25.40;96.70;;;;;;4983411;28;20046;-70
2023/05/24 14:55:41;;;;;;;6.13;3.28;;;25.40;96.70;;;;;;4985763;28;20089;-70
2023/05/24 14:58:11;;;;;;;5.30;3.40;;;25.40;96.70;;;;;;4979792;28;20042;-70
2023/05/24 15:00:41;;;;;;;6.68;3.17;;;25.30;96.70;;;;;;4970164;28;20141;-70
2023/05/24 15:03:11;;;;;;;4.75;3.17;;;25.20;96.70;;;;;;4983044;28;20050;-69
2023/05/24 15:05:42;;;;;;;6.68;3.30;;;25.10;96.70;;;;;;4987079;28;20047;-70
2023/05/24 15:08:11;;;;;;;6.20;3.20;;;25.10;96.70;;;;;;4952703;28;20138;-70
2023/05/24 15:10:43;;;;;;;6.40;3.13;;;25.10;96.70;;;;;;4986747;28;20042;-70
2023/05/24 15:13:12;;;;;;;7.97;3.30;;;25.00;96.70;;;;;;4960563;28;20093;-69
2023/05/24 15:15:41;;;;;;;9.65;3.83;;;25.00;96.70;;;;;;4987004;28;20030;-70
2023/05/24 15:18:09;;;;;;;7.68;3.58;;;25.00;96.70;;;;;;4986943;28;20068;-70
2023/05/24 15:20:37;;;;;;;6.43;4.07;;;25.00;96.70;;;;;;4986201;28;20035;-70
2023/05/24 15:23:09;;;;;;;8.13;3.55;;;25.00;96.70;;;;;;4978750;28;20073;-70
2023/05/24 15:25:37;;;;;;;11.65;3.72;;;24.90;96.70;;;;;;4960788;28;20073;-70
2023/05/24 15:28:09;;;;;;;7.10;2.90;;;24.90;96.70;;;;;;4986071;28;20608;-70
2023/05/24 15:30:38;;;;;;;7.05;2.80;;;24.90;96.70;;;;;;4953190;28;20509;-70
2023/05/24 15:33:06;;;;;;;5.22;2.50;;;24.90;96.70;;;;;;4985776;28;20105;-70
2023/05/24 15:35:35;;;;;;;7.93;3.17;;;25.00;96.70;;;;;;4986735;28;20109;-71